createdAt,value
2023-01-05T00:00:25.008Z,6.00
2023-01-05T00:04:13.180Z,3.20
2023-01-05T00:07:43.441Z,5.20
2023-01-05T00:11:30.002Z,4.60
2023-01-05T00:15:31.880Z,6.40
2023-01-05T00:19:16.372Z,2.50
2023-01-05T00:22:47.456Z,3.60
2023-01-05T00:26:15.595Z,3.30
2023-01-05T00:29:42.608Z,9.70
2023-01-05T00:33:12.291Z,1.80
2023-01-05T00:36:40.406Z,3.20
2023-01-05T00:40:10.436Z,2.60
2023-01-05T00:43:37.741Z,3.20
2023-01-05T00:47:04.839Z,2.70
2023-01-05T00:50:31.761Z,2.60
2023-01-05T00:54:01.130Z,1.90
2023-01-05T00:57:28.521Z,1.30
2023-01-05T01:00:56.218Z,1.60
2023-01-05T01:04:23.591Z,1.90
2023-01-05T01:07:50.439Z,3.40
2023-01-05T01:11:17.820Z,2.50
2023-01-05T01:14:47.354Z,5.40
2023-01-05T01:18:18.673Z,2.10
2023-01-05T01:21:46.920Z,2.40
2023-01-05T01:25:14.003Z,3.10
2023-01-05T01:28:41.082Z,2.40
2023-01-05T01:32:08.832Z,3.10
2023-01-05T01:35:38.091Z,2.50
2023-01-05T01:39:05.717Z,1.40
2023-01-05T01:42:35.270Z,2.60
2023-01-05T01:46:02.232Z,3.50
2023-01-05T01:49:29.151Z,2.30
2023-01-05T01:53:02.097Z,3.60
2023-01-05T01:56:35.967Z,2.30
2023-01-05T02:00:08.030Z,0.60
2023-01-05T02:03:45.142Z,4.10
2023-01-05T02:07:17.504Z,3.00
2023-01-05T02:11:03.750Z,3.20
2023-01-05T02:14:37.238Z,3.40
2023-01-05T02:18:20.248Z,1.40
2023-01-05T02:22:00.738Z,2.30
2023-01-05T02:25:48.964Z,1.90
2023-01-05T02:29:43.365Z,4.60
2023-01-05T02:33:26.465Z,3.60
2023-01-05T02:37:03.231Z,7.20
2023-01-05T02:40:35.562Z,6.20
2023-01-05T02:44:05.061Z,2.60
2023-01-05T02:47:45.275Z,2.60
2023-01-05T02:51:17.450Z,3.60
2023-01-05T02:54:49.822Z,5.80
2023-01-05T02:58:23.716Z,3.60
2023-01-05T03:01:55.549Z,5.60
2023-01-05T03:05:27.654Z,3.60
2023-01-05T03:08:58.460Z,6.50
2023-01-05T03:12:52.583Z,2.20
2023-01-05T03:16:27.525Z,5.20
2023-01-05T03:19:57.358Z,3.40
2023-01-05T03:23:42.764Z,4.50
2023-01-05T03:27:28.290Z,3.30
2023-01-05T03:31:19.435Z,3.80
2023-01-05T03:35:10.454Z,3.10
2023-01-05T03:38:46.794Z,6.70
2023-01-05T03:42:15.741Z,3.50
2023-01-05T03:45:46.883Z,8.00
2023-01-05T03:49:21.046Z,5.30
2023-01-05T03:52:48.771Z,8.50
2023-01-05T03:56:15.755Z,4.40
2023-01-05T03:59:43.049Z,6.30
2023-01-05T04:03:10.687Z,7.20
2023-01-05T04:06:39.313Z,7.70
2023-01-05T04:13:34.708Z,4.70
2023-01-05T04:17:02.486Z,8.90
2023-01-05T04:20:29.471Z,7.40
2023-01-05T04:23:56.425Z,9.70
2023-01-05T04:27:23.678Z,10.80
2023-01-05T04:30:54.637Z,8.70
2023-01-05T04:34:23.774Z,5.50
2023-01-05T04:37:51.843Z,10.00
2023-01-05T04:41:19.170Z,10.90
2023-01-05T04:44:48.343Z,27.90
2023-01-05T04:48:15.706Z,11.60
2023-01-05T04:51:43.779Z,10.00
2023-01-05T04:55:11.800Z,10.10
2023-01-05T04:58:39.296Z,10.30
2023-01-05T05:02:06.593Z,9.20
2023-01-05T05:05:34.015Z,9.20
2023-01-05T05:09:01.385Z,8.20
2023-01-05T05:12:29.420Z,8.70
2023-01-05T05:15:56.403Z,9.90
2023-01-05T05:19:23.539Z,7.10
2023-01-05T05:22:51.516Z,10.80
2023-01-05T05:26:19.118Z,16.90
2023-01-05T05:29:47.007Z,5.40
2023-01-05T05:33:13.987Z,9.90
2023-01-05T05:36:40.893Z,8.50
2023-01-05T05:40:10.127Z,9.00
2023-01-05T05:43:37.597Z,9.30
2023-01-05T05:47:05.028Z,6.20
2023-01-05T05:50:31.934Z,5.70
2023-01-05T05:54:05.848Z,7.60
2023-01-05T05:57:32.847Z,8.20
2023-01-05T06:01:02.859Z,6.30
2023-01-05T06:04:30.380Z,4.80
2023-01-05T06:07:57.391Z,4.80
2023-01-05T06:11:24.362Z,7.10
2023-01-05T06:14:51.588Z,3.50
2023-01-05T06:18:22.129Z,5.10
2023-01-05T06:21:49.022Z,4.70
2023-01-05T06:25:16.105Z,7.50
2023-01-05T06:28:43.201Z,9.80
2023-01-05T06:32:10.544Z,8.50
2023-01-05T06:35:37.447Z,9.90
2023-01-05T06:39:04.551Z,9.00
2023-01-05T06:42:32.292Z,5.50
2023-01-05T06:46:00.711Z,9.60
2023-01-05T06:49:28.123Z,9.70
2023-01-05T06:52:54.957Z,8.30
2023-01-05T06:56:21.811Z,8.80
2023-01-05T06:59:49.428Z,8.40
2023-01-05T07:03:16.961Z,8.20
2023-01-05T07:06:44.503Z,6.30
2023-01-05T07:10:12.601Z,6.30
2023-01-05T07:13:39.601Z,5.80
2023-01-05T07:17:06.553Z,5.90
2023-01-05T07:20:36.695Z,5.60
2023-01-05T07:24:04.533Z,13.10
2023-01-05T07:27:31.905Z,8.60
2023-01-05T07:30:59.267Z,18.60
2023-01-05T07:34:26.615Z,14.00
2023-01-05T07:37:53.624Z,11.20
2023-01-05T07:41:22.776Z,8.80
2023-01-05T07:44:49.640Z,7.50
2023-01-05T07:48:23.413Z,11.10
2023-01-05T07:51:50.614Z,5.90
2023-01-05T07:55:17.774Z,9.80
2023-01-05T07:58:47.871Z,5.70
2023-01-05T08:02:15.182Z,4.60
2023-01-05T08:05:42.635Z,4.20
2023-01-05T08:09:27.185Z,4.80
2023-01-05T08:13:11.924Z,3.90
2023-01-05T08:16:38.842Z,6.20
2023-01-05T08:20:06.624Z,8.30
2023-01-05T08:23:34.731Z,6.00
2023-01-05T08:27:01.808Z,10.70
2023-01-05T08:30:28.960Z,4.50
2023-01-05T08:34:00.150Z,5.90
2023-01-05T08:37:27.447Z,3.70
2023-01-05T08:40:55.075Z,3.80
2023-01-05T08:44:22.846Z,6.10
2023-01-05T08:47:49.709Z,3.70
2023-01-05T08:51:19.366Z,3.10
2023-01-05T08:54:46.611Z,4.50
2023-01-05T08:58:13.839Z,6.30
2023-01-05T09:01:41.238Z,6.80
2023-01-05T09:05:11.418Z,6.60
2023-01-05T09:12:09.287Z,1.20
2023-01-05T09:15:37.496Z,4.20
2023-01-05T09:19:04.536Z,6.80
2023-01-05T09:22:31.467Z,5.40
2023-01-05T09:26:00.543Z,4.90
2023-01-05T09:29:28.691Z,3.70
2023-01-05T09:32:55.771Z,6.50
2023-01-05T09:36:25.719Z,5.90
2023-01-05T09:43:27.031Z,6.50
2023-01-05T09:46:55.366Z,5.00
2023-01-05T09:50:25.354Z,10.30
2023-01-05T09:57:21.718Z,9.20
2023-01-05T10:01:03.397Z,9.20
2023-01-05T10:04:33.187Z,9.00
2023-01-05T10:08:05.222Z,8.00
2023-01-05T10:11:58.294Z,9.10
2023-01-05T10:15:25.963Z,8.50
2023-01-05T10:18:54.492Z,10.00
2023-01-05T10:22:38.837Z,7.30
2023-01-05T10:26:18.174Z,12.30
2023-01-05T10:29:47.613Z,5.00
2023-01-05T10:33:32.098Z,4.70
2023-01-05T10:37:22.733Z,3.40
2023-01-05T10:41:06.018Z,2.60
2023-01-05T10:44:56.868Z,2.40
2023-01-05T10:48:30.243Z,5.60
2023-01-05T10:52:00.214Z,4.20
2023-01-05T10:55:29.547Z,2.30
2023-01-05T10:59:10.800Z,4.80
2023-01-05T11:02:41.133Z,3.40
2023-01-05T11:06:10.280Z,6.10
2023-01-05T11:09:42.976Z,5.70
2023-01-05T11:13:30.693Z,5.30
2023-01-05T11:17:04.766Z,6.70
2023-01-05T11:20:38.297Z,3.90
2023-01-05T11:24:26.469Z,3.60
2023-01-05T11:28:10.291Z,6.50
2023-01-05T11:31:43.083Z,2.40
2023-01-05T11:35:22.628Z,3.00
2023-01-05T11:38:55.759Z,3.70
2023-01-05T11:42:31.868Z,3.70
2023-01-05T11:46:03.449Z,6.30
2023-01-05T11:49:30.936Z,25.90
2023-01-05T11:53:00.130Z,6.10
2023-01-05T11:56:27.873Z,7.40
2023-01-05T11:59:58.543Z,2.10
2023-01-05T12:03:39.859Z,5.20
2023-01-05T12:07:22.553Z,5.40
2023-01-05T12:11:03.839Z,4.50
2023-01-05T12:14:50.104Z,2.10
2023-01-05T12:18:30.966Z,3.70
2023-01-05T12:22:20.301Z,6.40
2023-01-05T12:26:01.936Z,8.00
2023-01-05T12:31:06.828Z,2.90
2023-01-05T12:34:02.298Z,7.70
2023-01-05T12:37:44.349Z,4.80
2023-01-05T12:41:31.303Z,5.60
2023-01-05T12:45:16.071Z,4.50
2023-01-05T12:48:48.225Z,5.40
2023-01-05T12:52:21.585Z,9.50
2023-01-05T12:55:53.759Z,9.00
2023-01-05T12:59:26.372Z,12.60
2023-01-05T13:02:59.733Z,5.30
2023-01-05T13:06:28.576Z,4.20
2023-01-05T13:10:03.285Z,6.80
2023-01-05T13:13:35.563Z,6.00
2023-01-05T13:17:05.798Z,4.80
2023-01-05T13:20:40.927Z,4.30
2023-01-05T13:24:14.398Z,4.00
2023-01-05T13:27:41.351Z,8.00
2023-01-05T13:31:26.760Z,3.80
2023-01-05T13:35:22.462Z,4.30
2023-01-05T13:39:28.608Z,5.20
2023-01-05T13:43:13.620Z,2.40
2023-01-05T13:47:00.900Z,4.10
2023-01-05T13:50:58.751Z,2.70
2023-01-05T13:54:49.177Z,3.20
2023-01-05T13:58:41.473Z,4.90
2023-01-05T14:02:28.588Z,6.10
2023-01-05T14:05:58.467Z,4.10
2023-01-05T14:12:58.303Z,2.40
2023-01-05T14:16:55.807Z,8.90
2023-01-05T14:20:42.080Z,1.90
2023-01-05T14:24:31.516Z,2.90
2023-01-05T14:28:20.767Z,34.10
2023-01-05T14:31:53.774Z,53.00
2023-01-05T14:35:29.967Z,66.30
2023-01-05T14:38:58.055Z,82.70
2023-01-05T14:42:32.637Z,50.50
2023-01-05T14:46:07.053Z,25.60
2023-01-05T14:49:38.447Z,13.10
2023-01-05T14:53:13.887Z,35.70
2023-01-05T14:56:41.196Z,71.00
2023-01-05T15:00:16.800Z,28.40
2023-01-05T15:03:49.871Z,21.90
2023-01-05T15:11:32.561Z,8.50
2023-01-05T15:15:40.915Z,6.60
2023-01-05T15:19:43.148Z,12.50
2023-01-05T15:23:26.483Z,4.80
2023-01-05T15:27:11.386Z,5.20
2023-01-05T15:31:11.449Z,7.20
2023-01-05T15:34:43.172Z,9.40
2023-01-05T15:38:31.108Z,10.50
2023-01-05T15:42:02.747Z,8.00
2023-01-05T15:45:32.356Z,7.80
2023-01-05T15:49:02.360Z,7.40
2023-01-05T15:52:35.367Z,10.70
2023-01-05T15:56:03.314Z,6.50
2023-01-05T15:59:39.528Z,7.00
2023-01-05T16:03:23.134Z,5.70
2023-01-05T16:07:00.509Z,7.40
2023-01-05T16:10:32.436Z,9.30
2023-01-05T16:14:03.926Z,29.80
2023-01-05T16:17:33.279Z,27.80
2023-01-05T16:21:07.240Z,49.60
2023-01-05T16:24:43.322Z,29.90
2023-01-05T16:28:21.271Z,27.80
2023-01-05T16:31:55.794Z,34.80
2023-01-05T16:35:35.400Z,28.10
2023-01-05T16:42:52.360Z,20.90
2023-01-05T16:46:35.447Z,13.80
2023-01-05T16:50:10.231Z,11.30
2023-01-05T16:53:42.186Z,14.60
2023-01-05T16:57:40.927Z,10.00
2023-01-05T17:01:28.064Z,7.50
2023-01-05T17:04:55.617Z,8.80
2023-01-05T17:08:30.465Z,10.10
2023-01-05T17:12:00.599Z,9.20
2023-01-05T17:15:30.741Z,6.10
2023-01-05T17:19:00.872Z,6.90
2023-01-05T17:22:30.840Z,5.30
2023-01-05T17:26:01.565Z,12.20
2023-01-05T17:29:30.680Z,12.90
2023-01-05T17:33:03.007Z,13.40
2023-01-05T17:36:34.009Z,37.40
2023-01-05T17:40:01.604Z,28.30
2023-01-05T17:43:29.204Z,43.00
2023-01-05T17:46:56.515Z,49.70
2023-01-05T17:50:26.850Z,23.10
2023-01-05T17:53:54.327Z,14.10
2023-01-05T17:57:22.197Z,11.90
2023-01-05T18:00:50.994Z,11.30
2023-01-05T18:04:20.164Z,7.70
2023-01-05T18:07:49.623Z,11.20
2023-01-05T18:14:45.989Z,22.30
2023-01-05T18:18:14.864Z,9.50
2023-01-05T18:25:16.503Z,8.20
2023-01-05T18:28:44.254Z,12.10
2023-01-05T18:32:12.690Z,14.80
2023-01-05T18:35:44.017Z,8.10
2023-01-05T18:39:11.987Z,15.30
2023-01-05T18:42:40.931Z,23.40
2023-01-05T18:46:09.405Z,40.00
2023-01-05T18:49:37.779Z,14.50
2023-01-05T18:53:05.939Z,8.30
2023-01-05T18:56:34.837Z,8.20
2023-01-05T19:00:03.942Z,15.90
2023-01-05T19:03:31.758Z,22.90
2023-01-05T19:06:59.420Z,7.60
2023-01-05T19:10:27.186Z,9.40
2023-01-05T19:13:57.941Z,8.40
2023-01-05T19:17:25.646Z,8.70
2023-01-05T19:21:00.317Z,8.30
2023-01-05T19:24:29.152Z,11.50
2023-01-05T19:27:56.752Z,8.80
2023-01-05T19:31:25.008Z,6.80
2023-01-05T19:34:54.055Z,11.40
2023-01-05T19:38:23.247Z,9.10
2023-01-05T19:41:52.772Z,22.10
2023-01-05T19:48:49.324Z,8.70
2023-01-05T19:52:17.749Z,8.00
2023-01-05T19:55:46.936Z,9.00
2023-01-05T19:59:21.566Z,6.90
2023-01-05T20:02:50.556Z,13.20
2023-01-05T20:06:22.194Z,9.40
2023-01-05T20:09:52.931Z,9.40
2023-01-05T20:13:21.089Z,9.80
2023-01-05T20:16:51.874Z,6.90
2023-01-05T20:20:20.382Z,5.10
2023-01-05T20:23:48.168Z,10.40
2023-01-05T20:27:18.883Z,32.30
2023-01-05T20:30:48.418Z,10.90
2023-01-05T20:34:21.221Z,7.70
2023-01-05T20:37:50.775Z,6.40
2023-01-05T20:41:23.979Z,4.80
2023-01-05T20:44:53.396Z,18.60
2023-01-05T20:48:22.593Z,31.20
2023-01-05T20:51:52.135Z,14.30
2023-01-05T20:55:22.259Z,5.60
2023-01-05T20:58:52.396Z,8.50
2023-01-05T21:02:24.642Z,5.30
2023-01-05T21:05:53.724Z,12.20
2023-01-05T21:09:23.507Z,19.80
2023-01-05T21:16:21.328Z,8.40
2023-01-05T21:19:50.565Z,6.60
2023-01-05T21:23:19.367Z,7.00
2023-01-05T21:26:48.225Z,6.30
2023-01-05T21:30:17.491Z,7.90
2023-01-05T21:33:46.886Z,8.50
2023-01-05T21:37:15.327Z,10.00
2023-01-05T21:40:43.332Z,7.70
2023-01-05T21:44:13.669Z,8.30
2023-01-05T21:47:41.416Z,7.60
2023-01-05T21:51:27.972Z,11.90
2023-01-05T21:55:27.372Z,8.20
2023-01-05T21:58:55.139Z,9.50
2023-01-05T22:02:22.317Z,9.90
2023-01-05T22:05:51.849Z,8.00
2023-01-05T22:09:18.811Z,12.30
2023-01-05T22:12:45.848Z,7.90
2023-01-05T22:16:13.179Z,7.70
2023-01-05T22:19:40.137Z,13.70
2023-01-05T22:23:07.433Z,10.00
2023-01-05T22:26:34.295Z,11.30
2023-01-05T22:30:01.153Z,6.80
2023-01-05T22:33:28.265Z,11.90
2023-01-05T22:36:55.321Z,9.30
2023-01-05T22:40:22.303Z,11.10
2023-01-05T22:43:50.218Z,13.80
2023-01-05T22:47:17.214Z,11.40
2023-01-05T22:50:44.256Z,11.70
2023-01-05T22:54:11.445Z,11.00
2023-01-05T22:57:38.312Z,26.90
2023-01-05T23:01:11.716Z,12.90
2023-01-05T23:04:38.633Z,11.90
2023-01-05T23:08:06.003Z,12.90
2023-01-05T23:11:35.135Z,12.50
2023-01-05T23:15:02.047Z,42.30
2023-01-05T23:18:29.556Z,28.20
2023-01-05T23:21:56.520Z,19.70
2023-01-05T23:25:23.476Z,16.70
2023-01-05T23:28:51.125Z,12.40
2023-01-05T23:32:18.181Z,14.60
2023-01-05T23:35:46.889Z,18.00
2023-01-05T23:39:14.288Z,29.50
2023-01-05T23:42:47.478Z,19.80
2023-01-05T23:46:17.669Z,16.20
2023-01-05T23:49:44.957Z,13.00
2023-01-05T23:53:12.782Z,16.10
2023-01-05T23:56:39.920Z,26.80
